sensor_id;sensor_type;location;lat;lon;timestamp;pressure;altitude;pressure_sealevel;temperature;humidity
16544;BME280;8384;47.996;7.786;2023-06-05T00:01:02;98761.94;;;16.01;64.13
16544;BME280;8384;47.996;7.786;2023-06-05T00:03:27;98762.56;;;16.31;62.50
16544;BME280;8384;47.996;7.786;2023-06-05T00:05:53;98753.28;;;16.08;62.07
16544;BME280;8384;47.996;7.786;2023-06-05T00:08:18;98767.56;;;16.29;61.61
16544;BME280;8384;47.996;7.786;2023-06-05T00:10:43;98755.81;;;16.23;61.81
16544;BME280;8384;47.996;7.786;2023-06-05T00:13:09;98763.88;;;16.19;62.22
16544;BME280;8384;47.996;7.786;2023-06-05T00:15:34;98754.47;;;16.01;62.43
16544;BME280;8384;47.996;7.786;2023-06-05T00:18:01;98719.53;;;15.72;62.87
16544;BME280;8384;47.996;7.786;2023-06-05T00:20:27;98766.03;;;16.03;62.61
16544;BME280;8384;47.996;7.786;2023-06-05T00:22:53;98709.16;;;15.45;63.82
16544;BME280;8384;47.996;7.786;2023-06-05T00:25:20;98737.75;;;15.49;64.30
16544;BME280;8384;47.996;7.786;2023-06-05T00:27:45;98742.53;;;15.63;63.20
16544;BME280;8384;47.996;7.786;2023-06-05T00:30:11;98706.25;;;15.12;64.90
16544;BME280;8384;47.996;7.786;2023-06-05T00:32:36;98762.88;;;15.42;65.46
16544;BME280;8384;47.996;7.786;2023-06-05T00:35:02;98760.13;;;15.42;64.90
16544;BME280;8384;47.996;7.786;2023-06-05T00:37:27;98762.94;;;15.37;65.23
16544;BME280;8384;47.996;7.786;2023-06-05T00:39:53;98739.75;;;15.19;65.40
16544;BME280;8384;47.996;7.786;2023-06-05T00:42:18;98769.47;;;15.22;66.03
16544;BME280;8384;47.996;7.786;2023-06-05T00:44:43;98764.00;;;15.17;65.38
16544;BME280;8384;47.996;7.786;2023-06-05T00:47:09;98760.84;;;14.99;65.16
16544;BME280;8384;47.996;7.786;2023-06-05T00:49:35;98752.91;;;14.98;64.83
16544;BME280;8384;47.996;7.786;2023-06-05T00:52:00;98773.91;;;15.18;63.70
16544;BME280;8384;47.996;7.786;2023-06-05T00:54:26;98761.91;;;15.04;63.08
16544;BME280;8384;47.996;7.786;2023-06-05T00:56:53;98742.47;;;14.95;63.03
16544;BME280;8384;47.996;7.786;2023-06-05T00:59:19;98760.75;;;15.10;62.15
16544;BME280;8384;47.996;7.786;2023-06-05T01:01:45;98770.66;;;15.11;61.46
16544;BME280;8384;47.996;7.786;2023-06-05T01:04:10;98767.59;;;15.12;60.43
16544;BME280;8384;47.996;7.786;2023-06-05T01:06:36;98774.72;;;15.19;60.05
16544;BME280;8384;47.996;7.786;2023-06-05T01:09:03;98721.47;;;14.75;60.34
16544;BME280;8384;47.996;7.786;2023-06-05T01:11:58;98771.81;;;15.05;60.41
16544;BME280;8384;47.996;7.786;2023-06-05T01:14:28;98762.50;;;15.00;60.15
16544;BME280;8384;47.996;7.786;2023-06-05T01:16:57;98767.31;;;14.84;61.23
16544;BME280;8384;47.996;7.786;2023-06-05T01:19:26;98770.22;;;14.98;59.48
16544;BME280;8384;47.996;7.786;2023-06-05T01:21:59;98763.06;;;14.97;58.88
16544;BME280;8384;47.996;7.786;2023-06-05T01:24:26;98768.16;;;14.85;59.75
16544;BME280;8384;47.996;7.786;2023-06-05T01:27:21;98767.00;;;14.91;58.24
16544;BME280;8384;47.996;7.786;2023-06-05T01:29:56;98770.56;;;14.92;57.80
16544;BME280;8384;47.996;7.786;2023-06-05T01:32:33;98770.41;;;14.78;58.19
16544;BME280;8384;47.996;7.786;2023-06-05T01:35:09;98771.66;;;14.56;58.49
16544;BME280;8384;47.996;7.786;2023-06-05T01:37:38;98774.56;;;14.35;60.14
16544;BME280;8384;47.996;7.786;2023-06-05T01:40:16;98774.31;;;14.32;61.97
16544;BME280;8384;47.996;7.786;2023-06-05T01:42:43;98778.00;;;14.17;64.48
16544;BME280;8384;47.996;7.786;2023-06-05T01:45:11;98772.94;;;14.34;62.31
16544;BME280;8384;47.996;7.786;2023-06-05T01:47:37;98778.56;;;14.53;59.78
16544;BME280;8384;47.996;7.786;2023-06-05T01:50:03;98767.41;;;14.39;59.06
16544;BME280;8384;47.996;7.786;2023-06-05T01:52:29;98780.41;;;14.29;59.80
16544;BME280;8384;47.996;7.786;2023-06-05T01:54:56;98776.63;;;14.14;62.74
16544;BME280;8384;47.996;7.786;2023-06-05T01:57:26;98772.25;;;14.13;62.33
16544;BME280;8384;47.996;7.786;2023-06-05T01:59:51;98753.38;;;13.91;63.14
16544;BME280;8384;47.996;7.786;2023-06-05T02:02:18;98762.78;;;13.90;63.64
16544;BME280;8384;47.996;7.786;2023-06-05T02:04:44;98765.53;;;13.85;63.83
16544;BME280;8384;47.996;7.786;2023-06-05T02:07:11;98747.44;;;13.73;64.18
16544;BME280;8384;47.996;7.786;2023-06-05T02:09:38;98771.84;;;13.85;63.63
16544;BME280;8384;47.996;7.786;2023-06-05T02:12:03;98774.06;;;13.78;64.20
16544;BME280;8384;47.996;7.786;2023-06-05T02:14:31;98777.13;;;13.71;65.04
16544;BME280;8384;47.996;7.786;2023-06-05T02:17:05;98774.72;;;13.54;65.76
16544;BME280;8384;47.996;7.786;2023-06-05T02:19:32;98755.78;;;13.47;65.76
16544;BME280;8384;47.996;7.786;2023-06-05T02:21:57;98782.94;;;13.54;65.62
16544;BME280;8384;47.996;7.786;2023-06-05T02:24:22;98780.19;;;13.54;64.72
16544;BME280;8384;47.996;7.786;2023-06-05T02:26:48;98769.22;;;13.54;64.35
16544;BME280;8384;47.996;7.786;2023-06-05T02:29:13;98774.69;;;13.59;64.26
16544;BME280;8384;47.996;7.786;2023-06-05T02:31:38;98740.97;;;13.38;63.82
16544;BME280;8384;47.996;7.786;2023-06-05T02:34:04;98773.03;;;13.63;63.35
16544;BME280;8384;47.996;7.786;2023-06-05T02:36:29;98773.88;;;13.59;62.85
16544;BME280;8384;47.996;7.786;2023-06-05T02:38:58;98760.72;;;13.50;62.92
16544;BME280;8384;47.996;7.786;2023-06-05T02:41:23;98779.09;;;13.55;63.30
16544;BME280;8384;47.996;7.786;2023-06-05T02:43:49;98762.91;;;13.38;63.61
16544;BME280;8384;47.996;7.786;2023-06-05T02:46:15;98778.00;;;13.51;62.40
16544;BME280;8384;47.996;7.786;2023-06-05T02:48:40;98775.81;;;13.53;61.91
16544;BME280;8384;47.996;7.786;2023-06-05T02:51:05;98762.97;;;13.33;63.09
16544;BME280;8384;47.996;7.786;2023-06-05T02:53:31;98777.19;;;13.56;61.75
16544;BME280;8384;47.996;7.786;2023-06-05T02:55:57;98768.16;;;13.50;62.00
16544;BME280;8384;47.996;7.786;2023-06-05T02:58:24;98776.84;;;13.73;60.69
16544;BME280;8384;47.996;7.786;2023-06-05T03:00:49;98755.47;;;13.64;59.80
16544;BME280;8384;47.996;7.786;2023-06-05T03:03:15;98775.81;;;13.53;61.05
16544;BME280;8384;47.996;7.786;2023-06-05T03:05:42;98729.56;;;13.05;61.52
16544;BME280;8384;47.996;7.786;2023-06-05T03:08:08;98750.91;;;13.18;61.77
16544;BME280;8384;47.996;7.786;2023-06-05T03:10:33;98756.94;;;13.15;62.04
16544;BME280;8384;47.996;7.786;2023-06-05T03:12:58;98776.16;;;13.26;61.86
16544;BME280;8384;47.996;7.786;2023-06-05T03:15:23;98786.03;;;13.27;61.67
16544;BME280;8384;47.996;7.786;2023-06-05T03:17:49;98798.09;;;13.31;61.42
16544;BME280;8384;47.996;7.786;2023-06-05T03:20:17;98798.41;;;13.24;61.05
16544;BME280;8384;47.996;7.786;2023-06-05T03:22:43;98769.88;;;13.04;61.69
16544;BME280;8384;47.996;7.786;2023-06-05T03:25:08;98792.91;;;13.24;61.46
16544;BME280;8384;47.996;7.786;2023-06-05T03:27:34;98794.00;;;13.44;59.37
16544;BME280;8384;47.996;7.786;2023-06-05T03:30:00;98764.94;;;13.07;60.57
16544;BME280;8384;47.996;7.786;2023-06-05T03:32:26;98797.84;;;13.22;60.85
16544;BME280;8384;47.996;7.786;2023-06-05T03:34:52;98793.13;;;13.54;58.80
16544;BME280;8384;47.996;7.786;2023-06-05T03:37:17;98786.03;;;13.16;59.36
16544;BME280;8384;47.996;7.786;2023-06-05T03:39:42;98796.75;;;13.23;58.81
16544;BME280;8384;47.996;7.786;2023-06-05T03:42:08;98796.47;;;13.14;59.86
16544;BME280;8384;47.996;7.786;2023-06-05T03:44:36;98789.38;;;13.03;59.99
16544;BME280;8384;47.996;7.786;2023-06-05T03:47:02;98793.50;;;12.95;60.59
16544;BME280;8384;47.996;7.786;2023-06-05T03:49:27;98808.81;;;13.27;59.29
16544;BME280;8384;47.996;7.786;2023-06-05T03:51:54;98805.25;;;13.27;60.00
16544;BME280;8384;47.996;7.786;2023-06-05T03:54:28;98804.75;;;13.04;60.82
16544;BME280;8384;47.996;7.786;2023-06-05T03:56:56;98809.94;;;13.11;60.40
16544;BME280;8384;47.996;7.786;2023-06-05T03:59:24;98806.91;;;13.12;60.90
16544;BME280;8384;47.996;7.786;2023-06-05T04:01:50;98811.28;;;13.13;60.84
16544;BME280;8384;47.996;7.786;2023-06-05T04:04:16;98781.13;;;12.93;61.06
16544;BME280;8384;47.996;7.786;2023-06-05T04:06:41;98767.72;;;12.81;60.75
16544;BME280;8384;47.996;7.786;2023-06-05T04:09:07;98807.19;;;13.05;61.04
16544;BME280;8384;47.996;7.786;2023-06-05T04:11:38;98802.81;;;12.89;62.73
16544;BME280;8384;47.996;7.786;2023-06-05T04:14:04;98821.47;;;13.23;62.57
16544;BME280;8384;47.996;7.786;2023-06-05T04:16:29;98792.41;;;12.86;64.24
16544;BME280;8384;47.996;7.786;2023-06-05T04:18:55;98819.56;;;13.08;63.01
16544;BME280;8384;47.996;7.786;2023-06-05T04:21:20;98814.06;;;13.08;63.39
16544;BME280;8384;47.996;7.786;2023-06-05T04:23:46;98812.72;;;12.90;64.64
16544;BME280;8384;47.996;7.786;2023-06-05T04:26:11;98816.22;;;13.22;62.83
16544;BME280;8384;47.996;7.786;2023-06-05T04:28:38;98795.97;;;13.07;62.24
16544;BME280;8384;47.996;7.786;2023-06-05T04:31:04;98795.13;;;13.17;61.43
16544;BME280;8384;47.996;7.786;2023-06-05T04:33:29;98827.75;;;13.44;60.40
16544;BME280;8384;47.996;7.786;2023-06-05T04:35:54;98826.81;;;13.80;58.07
16544;BME280;8384;47.996;7.786;2023-06-05T04:38:20;98828.97;;;13.93;56.89
16544;BME280;8384;47.996;7.786;2023-06-05T04:40:47;98819.19;;;13.67;58.15
16544;BME280;8384;47.996;7.786;2023-06-05T04:43:13;98826.53;;;13.82;57.45
16544;BME280;8384;47.996;7.786;2023-06-05T04:45:39;98833.94;;;13.81;57.76
16544;BME280;8384;47.996;7.786;2023-06-05T04:48:05;98815.34;;;13.62;58.03
16544;BME280;8384;47.996;7.786;2023-06-05T04:50:30;98825.44;;;13.77;58.37
16544;BME280;8384;47.996;7.786;2023-06-05T04:52:56;98843.19;;;14.06;57.21
16544;BME280;8384;47.996;7.786;2023-06-05T04:55:21;98838.47;;;14.17;56.43
16544;BME280;8384;47.996;7.786;2023-06-05T04:57:47;98820.78;;;14.33;55.80
16544;BME280;8384;47.996;7.786;2023-06-05T05:00:14;98803.22;;;14.29;54.96
16544;BME280;8384;47.996;7.786;2023-06-05T05:02:40;98784.63;;;14.10;55.32
16544;BME280;8384;47.996;7.786;2023-06-05T05:05:05;98834.50;;;14.38;55.72
16544;BME280;8384;47.996;7.786;2023-06-05T05:07:31;98841.03;;;14.48;55.74
16544;BME280;8384;47.996;7.786;2023-06-05T05:09:57;98790.94;;;14.11;56.29
16544;BME280;8384;47.996;7.786;2023-06-05T05:12:22;98840.19;;;14.52;56.00
16544;BME280;8384;47.996;7.786;2023-06-05T05:14:47;98813.59;;;14.43;55.60
16544;BME280;8384;47.996;7.786;2023-06-05T05:17:13;98846.16;;;14.70;55.23
16544;BME280;8384;47.996;7.786;2023-06-05T05:19:40;98830.53;;;14.55;55.60
16544;BME280;8384;47.996;7.786;2023-06-05T05:22:06;98815.78;;;14.40;56.05
16544;BME280;8384;47.996;7.786;2023-06-05T05:24:31;98811.88;;;14.47;55.79
16544;BME280;8384;47.996;7.786;2023-06-05T05:26:56;98812.22;;;14.40;56.04
16544;BME280;8384;47.996;7.786;2023-06-05T05:29:22;98842.13;;;14.47;56.45
16544;BME280;8384;47.996;7.786;2023-06-05T05:31:47;98821.25;;;14.46;57.08
16544;BME280;8384;47.996;7.786;2023-06-05T05:34:12;98836.28;;;14.59;56.34
16544;BME280;8384;47.996;7.786;2023-06-05T05:36:38;98832.78;;;14.48;56.58
16544;BME280;8384;47.996;7.786;2023-06-05T05:39:04;98843.31;;;14.35;57.07
16544;BME280;8384;47.996;7.786;2023-06-05T05:41:29;98844.41;;;14.39;57.95
16544;BME280;8384;47.996;7.786;2023-06-05T05:43:55;98829.84;;;14.34;58.02
16544;BME280;8384;47.996;7.786;2023-06-05T05:46:20;98837.53;;;14.37;58.30
16544;BME280;8384;47.996;7.786;2023-06-05T05:48:45;98850.34;;;14.52;58.38
16544;BME280;8384;47.996;7.786;2023-06-05T05:51:11;98837.16;;;14.49;58.36
16544;BME280;8384;47.996;7.786;2023-06-05T05:53:36;98841.53;;;14.55;58.34
16544;BME280;8384;47.996;7.786;2023-06-05T05:56:02;98816.91;;;14.39;58.24
16544;BME280;8384;47.996;7.786;2023-06-05T05:58:28;98849.94;;;14.79;57.75
16544;BME280;8384;47.996;7.786;2023-06-05T06:00:54;98810.19;;;14.56;58.13
16544;BME280;8384;47.996;7.786;2023-06-05T06:03:19;98822.22;;;14.65;58.28
16544;BME280;8384;47.996;7.786;2023-06-05T06:05:45;98839.50;;;15.11;56.86
16544;BME280;8384;47.996;7.786;2023-06-05T06:08:11;98806.81;;;14.69;58.20
16544;BME280;8384;47.996;7.786;2023-06-05T06:10:37;98851.84;;;15.13;57.91
16544;BME280;8384;47.996;7.786;2023-06-05T06:13:03;98835.47;;;14.98;57.68
16544;BME280;8384;47.996;7.786;2023-06-05T06:15:29;98852.31;;;15.26;57.44
16544;BME280;8384;47.996;7.786;2023-06-05T06:17:55;98852.63;;;15.19;57.51
16544;BME280;8384;47.996;7.786;2023-06-05T06:20:22;98841.06;;;15.22;57.19
16544;BME280;8384;47.996;7.786;2023-06-05T06:22:47;98813.03;;;15.15;56.83
16544;BME280;8384;47.996;7.786;2023-06-05T06:25:14;98843.81;;;15.47;56.22
16544;BME280;8384;47.996;7.786;2023-06-05T06:27:41;98861.31;;;15.61;56.56
16544;BME280;8384;47.996;7.786;2023-06-05T06:30:06;98799.09;;;15.30;56.10
16544;BME280;8384;47.996;7.786;2023-06-05T06:32:32;98859.72;;;15.79;55.95
16544;BME280;8384;47.996;7.786;2023-06-05T06:34:57;98858.91;;;15.79;55.33
16544;BME280;8384;47.996;7.786;2023-06-05T06:37:23;98853.81;;;15.91;55.02
16544;BME280;8384;47.996;7.786;2023-06-05T06:39:48;98859.06;;;15.93;55.42
16544;BME280;8384;47.996;7.786;2023-06-05T06:42:14;98815.88;;;15.83;54.79
16544;BME280;8384;47.996;7.786;2023-06-05T06:44:40;98856.66;;;16.29;54.59
16544;BME280;8384;47.996;7.786;2023-06-05T06:47:05;98858.38;;;16.25;54.70
16544;BME280;8384;47.996;7.786;2023-06-05T06:49:31;98841.25;;;16.47;53.57
16544;BME280;8384;47.996;7.786;2023-06-05T06:51:56;98849.00;;;16.64;53.65
16544;BME280;8384;47.996;7.786;2023-06-05T06:54:22;98848.09;;;16.69;52.96
16544;BME280;8384;47.996;7.786;2023-06-05T06:56:48;98860.91;;;17.17;51.71
16544;BME280;8384;47.996;7.786;2023-06-05T06:59:15;98841.50;;;17.50;50.75
16544;BME280;8384;47.996;7.786;2023-06-05T07:01:45;98862.00;;;17.63;50.20
16544;BME280;8384;47.996;7.786;2023-06-05T07:04:11;98846.41;;;17.53;50.12
16544;BME280;8384;47.996;7.786;2023-06-05T07:06:37;98856.69;;;17.67;49.95
16544;BME280;8384;47.996;7.786;2023-06-05T07:09:03;98850.84;;;17.68;49.26
16544;BME280;8384;47.996;7.786;2023-06-05T07:11:28;98846.75;;;17.66;49.03
16544;BME280;8384;47.996;7.786;2023-06-05T07:13:54;98855.78;;;17.99;49.02
16544;BME280;8384;47.996;7.786;2023-06-05T07:16:19;98854.03;;;17.90;49.46
16544;BME280;8384;47.996;7.786;2023-06-05T07:18:45;98857.19;;;17.55;50.10
16544;BME280;8384;47.996;7.786;2023-06-05T07:21:10;98847.44;;;17.58;51.23
16544;BME280;8384;47.996;7.786;2023-06-05T07:23:36;98852.19;;;18.27;48.82
16544;BME280;8384;47.996;7.786;2023-06-05T07:26:01;98865.34;;;18.44;47.74
16544;BME280;8384;47.996;7.786;2023-06-05T07:28:27;98855.88;;;18.22;48.31
16544;BME280;8384;47.996;7.786;2023-06-05T07:30:52;98850.94;;;18.33;48.16
16544;BME280;8384;47.996;7.786;2023-06-05T07:33:17;98834.94;;;18.30;48.81
16544;BME280;8384;47.996;7.786;2023-06-05T07:35:43;98844.41;;;18.66;48.93
16544;BME280;8384;47.996;7.786;2023-06-05T07:38:10;98855.66;;;18.69;48.07
16544;BME280;8384;47.996;7.786;2023-06-05T07:40:35;98855.41;;;18.43;47.19
16544;BME280;8384;47.996;7.786;2023-06-05T07:43:01;98850.41;;;18.68;47.41
16544;BME280;8384;47.996;7.786;2023-06-05T07:45:26;98848.91;;;18.98;47.77
16544;BME280;8384;47.996;7.786;2023-06-05T07:47:51;98809.91;;;18.95;47.41
16544;BME280;8384;47.996;7.786;2023-06-05T07:50:17;98842.41;;;19.57;46.94
16544;BME280;8384;47.996;7.786;2023-06-05T07:52:42;98852.59;;;19.79;46.70
16544;BME280;8384;47.996;7.786;2023-06-05T07:55:07;98854.38;;;19.75;45.85
16544;BME280;8384;47.996;7.786;2023-06-05T07:57:33;98847.34;;;19.38;46.54
16544;BME280;8384;47.996;7.786;2023-06-05T07:59:58;98849.19;;;19.42;46.26
16544;BME280;8384;47.996;7.786;2023-06-05T08:02:23;98843.44;;;19.39;46.35
16544;BME280;8384;47.996;7.786;2023-06-05T08:04:49;98834.63;;;19.37;47.11
16544;BME280;8384;47.996;7.786;2023-06-05T08:07:14;98816.72;;;19.43;47.36
16544;BME280;8384;47.996;7.786;2023-06-05T08:09:40;98835.34;;;19.83;46.17
16544;BME280;8384;47.996;7.786;2023-06-05T08:12:06;98825.94;;;20.01;45.43
16544;BME280;8384;47.996;7.786;2023-06-05T08:14:32;98831.69;;;20.05;44.73
16544;BME280;8384;47.996;7.786;2023-06-05T08:16:58;98831.50;;;20.01;45.49
16544;BME280;8384;47.996;7.786;2023-06-05T08:19:23;98813.97;;;19.83;45.49
16544;BME280;8384;47.996;7.786;2023-06-05T08:21:51;98808.03;;;20.16;44.14
16544;BME280;8384;47.996;7.786;2023-06-05T08:24:20;98833.06;;;20.69;44.13
16544;BME280;8384;47.996;7.786;2023-06-05T08:26:45;98834.88;;;20.91;43.46
16544;BME280;8384;47.996;7.786;2023-06-05T08:29:10;98825.06;;;20.67;42.54
16544;BME280;8384;47.996;7.786;2023-06-05T08:31:37;98812.78;;;20.42;43.54
16544;BME280;8384;47.996;7.786;2023-06-05T08:34:02;98826.16;;;20.22;43.12
16544;BME280;8384;47.996;7.786;2023-06-05T08:36:28;98822.09;;;20.37;43.04
16544;BME280;8384;47.996;7.786;2023-06-05T08:38:53;98821.78;;;20.48;43.74
16544;BME280;8384;47.996;7.786;2023-06-05T08:41:19;98815.91;;;20.76;43.87
16544;BME280;8384;47.996;7.786;2023-06-05T08:43:44;98812.31;;;20.66;43.43
16544;BME280;8384;47.996;7.786;2023-06-05T08:46:11;98819.34;;;20.73;43.19
16544;BME280;8384;47.996;7.786;2023-06-05T08:48:42;98816.41;;;20.51;43.21
16544;BME280;8384;47.996;7.786;2023-06-05T08:51:10;98819.38;;;20.81;42.97
16544;BME280;8384;47.996;7.786;2023-06-05T08:53:38;98813.31;;;20.88;43.17
16544;BME280;8384;47.996;7.786;2023-06-05T08:56:05;98808.88;;;21.05;43.22
16544;BME280;8384;47.996;7.786;2023-06-05T08:58:31;98814.59;;;20.64;43.23
16544;BME280;8384;47.996;7.786;2023-06-05T09:00:57;98765.91;;;20.76;43.18
16544;BME280;8384;47.996;7.786;2023-06-05T09:03:22;98810.47;;;21.23;43.02
16544;BME280;8384;47.996;7.786;2023-06-05T09:05:47;98806.03;;;21.79;41.97
16544;BME280;8384;47.996;7.786;2023-06-05T09:08:14;98772.09;;;21.55;41.36
16544;BME280;8384;47.996;7.786;2023-06-05T09:10:40;98799.88;;;22.24;40.89
16544;BME280;8384;47.996;7.786;2023-06-05T09:13:06;98804.13;;;22.22;39.96
16544;BME280;8384;47.996;7.786;2023-06-05T09:15:33;98802.22;;;22.43;40.02
16544;BME280;8384;47.996;7.786;2023-06-05T09:18:12;98788.22;;;22.52;38.86
16544;BME280;8384;47.996;7.786;2023-06-05T09:20:43;98811.91;;;22.80;38.13
16544;BME280;8384;47.996;7.786;2023-06-05T09:23:22;98807.72;;;22.01;40.36
16544;BME280;8384;47.996;7.786;2023-06-05T09:25:52;98805.84;;;21.84;40.26
16544;BME280;8384;47.996;7.786;2023-06-05T09:28:18;98807.75;;;22.22;39.68
16544;BME280;8384;47.996;7.786;2023-06-05T09:33:18;98795.47;;;22.44;39.29
16544;BME280;8384;47.996;7.786;2023-06-05T09:35:44;98792.63;;;22.74;38.68
16544;BME280;8384;47.996;7.786;2023-06-05T09:38:26;98785.28;;;23.03;38.26
16544;BME280;8384;47.996;7.786;2023-06-05T09:40:52;98785.91;;;23.67;36.55
16544;BME280;8384;47.996;7.786;2023-06-05T09:43:21;98787.63;;;24.22;35.49
16544;BME280;8384;47.996;7.786;2023-06-05T09:45:47;98785.75;;;23.89;35.51
16544;BME280;8384;47.996;7.786;2023-06-05T09:48:13;98786.63;;;24.42;34.93
16544;BME280;8384;47.996;7.786;2023-06-05T09:50:39;98784.38;;;24.61;33.98
16544;BME280;8384;47.996;7.786;2023-06-05T09:53:06;98791.25;;;24.92;33.72
16544;BME280;8384;47.996;7.786;2023-06-05T09:55:31;98775.69;;;24.78;33.74
16544;BME280;8384;47.996;7.786;2023-06-05T09:57:59;98784.50;;;24.93;34.35
16544;BME280;8384;47.996;7.786;2023-06-05T10:00:25;98750.28;;;24.02;35.65
16544;BME280;8384;47.996;7.786;2023-06-05T10:02:53;98779.94;;;23.69;35.69
16544;BME280;8384;47.996;7.786;2023-06-05T10:05:20;98782.75;;;23.81;36.05
16544;BME280;8384;47.996;7.786;2023-06-05T10:07:47;98768.19;;;24.13;35.89
16544;BME280;8384;47.996;7.786;2023-06-05T10:10:19;98770.91;;;25.07;34.78
16544;BME280;8384;47.996;7.786;2023-06-05T10:12:44;98777.44;;;24.83;33.68
16544;BME280;8384;47.996;7.786;2023-06-05T10:15:10;98777.28;;;24.22;35.27
16544;BME280;8384;47.996;7.786;2023-06-05T10:17:36;98774.81;;;24.21;36.16
16544;BME280;8384;47.996;7.786;2023-06-05T10:20:05;98764.72;;;23.91;35.65
16544;BME280;8384;47.996;7.786;2023-06-05T10:22:33;98745.78;;;24.38;35.42
16544;BME280;8384;47.996;7.786;2023-06-05T10:25:03;98752.47;;;25.06;34.62
16544;BME280;8384;47.996;7.786;2023-06-05T10:35:50;98750.09;;;25.69;33.78
16544;BME280;8384;47.996;7.786;2023-06-05T10:38:23;98735.34;;;24.92;33.31
16544;BME280;8384;47.996;7.786;2023-06-05T10:41:01;98753.00;;;24.80;33.68
16544;BME280;8384;47.996;7.786;2023-06-05T10:43:36;98740.69;;;24.97;33.90
16544;BME280;8384;47.996;7.786;2023-06-05T10:46:27;98742.78;;;25.16;33.52
16544;BME280;8384;47.996;7.786;2023-06-05T10:51:46;98745.69;;;25.52;32.00
16544;BME280;8384;47.996;7.786;2023-06-05T10:57:01;98746.06;;;24.61;33.51
16544;BME280;8384;47.996;7.786;2023-06-05T10:59:29;98744.44;;;24.89;33.42
16544;BME280;8384;47.996;7.786;2023-06-05T11:07:27;98742.97;;;25.55;33.21
16544;BME280;8384;47.996;7.786;2023-06-05T11:15:07;98737.38;;;26.07;32.04
16544;BME280;8384;47.996;7.786;2023-06-05T11:17:35;98691.97;;;25.46;31.03
16544;BME280;8384;47.996;7.786;2023-06-05T11:20:02;98732.09;;;25.86;30.74
16544;BME280;8384;47.996;7.786;2023-06-05T11:22:31;98736.47;;;26.39;29.41
16544;BME280;8384;47.996;7.786;2023-06-05T11:28:05;98730.78;;;26.35;29.92
16544;BME280;8384;47.996;7.786;2023-06-05T11:30:38;98698.28;;;26.30;29.38
16544;BME280;8384;47.996;7.786;2023-06-05T11:33:08;98730.34;;;26.13;29.15
16544;BME280;8384;47.996;7.786;2023-06-05T11:35:34;98722.91;;;26.21;28.54
16544;BME280;8384;47.996;7.786;2023-06-05T11:40:35;98698.69;;;25.77;28.46
16544;BME280;8384;47.996;7.786;2023-06-05T11:43:11;98697.63;;;26.17;27.33
16544;BME280;8384;47.996;7.786;2023-06-05T11:45:39;98710.44;;;26.18;26.88
16544;BME280;8384;47.996;7.786;2023-06-05T11:48:06;98715.94;;;26.15;27.55
16544;BME280;8384;47.996;7.786;2023-06-05T11:50:31;98695.91;;;26.13;27.62
16544;BME280;8384;47.996;7.786;2023-06-05T11:53:12;98718.78;;;25.99;27.44
16544;BME280;8384;47.996;7.786;2023-06-05T11:55:37;98708.41;;;26.78;25.83
16544;BME280;8384;47.996;7.786;2023-06-05T11:58:30;98655.06;;;26.51;26.69
16544;BME280;8384;47.996;7.786;2023-06-05T12:01:15;98722.59;;;26.26;25.65
16544;BME280;8384;47.996;7.786;2023-06-05T12:03:49;98710.91;;;26.04;27.05
16544;BME280;8384;47.996;7.786;2023-06-05T12:06:15;98716.13;;;26.42;26.10
16544;BME280;8384;47.996;7.786;2023-06-05T12:08:43;98655.03;;;25.40;27.14
16544;BME280;8384;47.996;7.786;2023-06-05T12:11:21;98711.69;;;25.85;27.07
16544;BME280;8384;47.996;7.786;2023-06-05T12:13:51;98697.25;;;26.19;27.59
16544;BME280;8384;47.996;7.786;2023-06-05T12:16:18;98664.81;;;25.82;27.06
16544;BME280;8384;47.996;7.786;2023-06-05T12:18:44;98683.41;;;26.10;26.64
16544;BME280;8384;47.996;7.786;2023-06-05T12:21:24;98698.63;;;26.68;26.97
16544;BME280;8384;47.996;7.786;2023-06-05T12:23:51;98681.03;;;26.91;27.27
16544;BME280;8384;47.996;7.786;2023-06-05T12:26:17;98691.88;;;26.92;26.93
16544;BME280;8384;47.996;7.786;2023-06-05T12:28:43;98682.44;;;26.18;27.92
16544;BME280;8384;47.996;7.786;2023-06-05T12:31:10;98669.38;;;26.26;27.71
16544;BME280;8384;47.996;7.786;2023-06-05T12:33:48;98686.75;;;26.55;26.73
16544;BME280;8384;47.996;7.786;2023-06-05T12:36:14;98684.72;;;26.95;26.31
16544;BME280;8384;47.996;7.786;2023-06-05T12:38:40;98659.53;;;26.56;26.39
16544;BME280;8384;47.996;7.786;2023-06-05T12:41:10;98647.69;;;26.23;26.76
16544;BME280;8384;47.996;7.786;2023-06-05T12:43:35;98686.53;;;26.25;26.66
16544;BME280;8384;47.996;7.786;2023-06-05T12:46:01;98642.06;;;26.03;27.05
16544;BME280;8384;47.996;7.786;2023-06-05T12:48:27;98653.28;;;26.03;26.98
16544;BME280;8384;47.996;7.786;2023-06-05T12:50:52;98635.44;;;25.92;27.30
16544;BME280;8384;47.996;7.786;2023-06-05T12:53:19;98644.97;;;26.27;27.10
16544;BME280;8384;47.996;7.786;2023-06-05T12:55:45;98641.66;;;26.84;26.79
16544;BME280;8384;47.996;7.786;2023-06-05T12:58:10;98654.31;;;26.54;27.33
16544;BME280;8384;47.996;7.786;2023-06-05T13:00:35;98655.41;;;26.49;27.29
16544;BME280;8384;47.996;7.786;2023-06-05T13:03:01;98647.63;;;26.82;26.55
16544;BME280;8384;47.996;7.786;2023-06-05T13:05:28;98558.63;;;26.32;27.02
16544;BME280;8384;47.996;7.786;2023-06-05T13:07:53;98644.44;;;27.07;25.96
16544;BME280;8384;47.996;7.786;2023-06-05T13:10:20;98658.69;;;27.45;25.79
16544;BME280;8384;47.996;7.786;2023-06-05T13:12:45;98655.59;;;26.80;26.03
16544;BME280;8384;47.996;7.786;2023-06-05T13:15:11;98660.53;;;26.87;26.19
16544;BME280;8384;47.996;7.786;2023-06-05T13:17:37;98643.28;;;27.35;25.94
16544;BME280;8384;47.996;7.786;2023-06-05T13:20:03;98641.72;;;27.37;25.46
16544;BME280;8384;47.996;7.786;2023-06-05T13:22:33;98656.63;;;27.42;26.38
16544;BME280;8384;47.996;7.786;2023-06-05T13:24:58;98634.63;;;28.32;24.95
16544;BME280;8384;47.996;7.786;2023-06-05T13:27:24;98648.28;;;28.03;24.62
16544;BME280;8384;47.996;7.786;2023-06-05T13:29:49;98639.94;;;27.79;24.90
16544;BME280;8384;47.996;7.786;2023-06-05T13:32:14;98631.34;;;27.95;24.86
16544;BME280;8384;47.996;7.786;2023-06-05T13:34:40;98628.16;;;28.31;24.54
16544;BME280;8384;47.996;7.786;2023-06-05T13:37:05;98624.91;;;28.63;24.35
16544;BME280;8384;47.996;7.786;2023-06-05T13:39:30;98625.28;;;28.24;24.47
16544;BME280;8384;47.996;7.786;2023-06-05T13:41:56;98613.47;;;28.11;24.72